sensor_id;sensor_type;location;lat;lon;timestamp;P1;durP1;ratioP1;P2;durP2;ratioP2
47856;SDS011;33618;49.972;8.242;2024-03-23T00:54:23;12.32;;;11.02;;
47856;SDS011;33618;49.972;8.242;2024-03-23T00:56:50;10.77;;;9.60;;
47856;SDS011;33618;49.972;8.242;2024-03-23T00:59:16;12.15;;;8.48;;
47856;SDS011;33618;49.972;8.242;2024-03-23T01:01:42;15.13;;;9.48;;
47856;SDS011;33618;49.972;8.242;2024-03-23T01:04:08;10.25;;;9.23;;
47856;SDS011;33618;49.972;8.242;2024-03-23T01:06:35;11.43;;;9.18;;
47856;SDS011;33618;49.972;8.242;2024-03-23T01:09:01;10.57;;;9.50;;
47856;SDS011;33618;49.972;8.242;2024-03-23T01:11:27;12.48;;;11.07;;
47856;SDS011;33618;49.972;8.242;2024-03-23T01:13:54;12.35;;;11.10;;
47856;SDS011;33618;49.972;8.242;2024-03-23T01:16:21;11.73;;;9.85;;
47856;SDS011;33618;49.972;8.242;2024-03-23T01:18:47;12.32;;;9.00;;
47856;SDS011;33618;49.972;8.242;2024-03-23T01:21:13;14.65;;;10.63;;
47856;SDS011;33618;49.972;8.242;2024-03-23T01:23:40;12.15;;;10.18;;
47856;SDS011;33618;49.972;8.242;2024-03-23T01:26:07;15.70;;;11.82;;
47856;SDS011;33618;49.972;8.242;2024-03-23T01:28:33;21.27;;;16.65;;
47856;SDS011;33618;49.972;8.242;2024-03-23T01:31:00;18.02;;;15.70;;
47856;SDS011;33618;49.972;8.242;2024-03-23T01:33:26;16.73;;;13.43;;
47856;SDS011;33618;49.972;8.242;2024-03-23T01:35:53;20.00;;;15.43;;
47856;SDS011;33618;49.972;8.242;2024-03-23T01:38:19;19.92;;;11.77;;
47856;SDS011;33618;49.972;8.242;2024-03-23T01:40:45;19.30;;;13.57;;
47856;SDS011;33618;49.972;8.242;2024-03-23T01:43:11;23.67;;;13.60;;
47856;SDS011;33618;49.972;8.242;2024-03-23T01:45:38;21.30;;;15.82;;
47856;SDS011;33618;49.972;8.242;2024-03-23T01:48:04;19.55;;;15.43;;
47856;SDS011;33618;49.972;8.242;2024-03-23T01:50:31;19.80;;;12.48;;
47856;SDS011;33618;49.972;8.242;2024-03-23T01:53:02;22.75;;;17.90;;
47856;SDS011;33618;49.972;8.242;2024-03-23T01:55:31;21.10;;;13.75;;
47856;SDS011;33618;49.972;8.242;2024-03-23T01:57:57;22.67;;;19.17;;
47856;SDS011;33618;49.972;8.242;2024-03-23T02:00:23;28.83;;;17.33;;
47856;SDS011;33618;49.972;8.242;2024-03-23T02:02:50;24.45;;;18.58;;
47856;SDS011;33618;49.972;8.242;2024-03-23T02:05:17;21.45;;;16.55;;
47856;SDS011;33618;49.972;8.242;2024-03-23T02:07:43;29.17;;;19.10;;
47856;SDS011;33618;49.972;8.242;2024-03-23T02:10:10;27.83;;;19.85;;
47856;SDS011;33618;49.972;8.242;2024-03-23T02:12:40;26.90;;;19.90;;
47856;SDS011;33618;49.972;8.242;2024-03-23T02:15:06;23.77;;;17.65;;
47856;SDS011;33618;49.972;8.242;2024-03-23T02:17:36;27.35;;;20.13;;
47856;SDS011;33618;49.972;8.242;2024-03-23T02:20:02;28.15;;;19.42;;
47856;SDS011;33618;49.972;8.242;2024-03-23T02:22:35;30.38;;;20.98;;
47856;SDS011;33618;49.972;8.242;2024-03-23T02:25:03;25.40;;;16.55;;
47856;SDS011;33618;49.972;8.242;2024-03-23T02:27:29;24.23;;;18.88;;
47856;SDS011;33618;49.972;8.242;2024-03-23T02:29:55;18.83;;;14.63;;
47856;SDS011;33618;49.972;8.242;2024-03-23T02:32:22;18.02;;;13.63;;
47856;SDS011;33618;49.972;8.242;2024-03-23T02:34:48;15.68;;;13.68;;
47856;SDS011;33618;49.972;8.242;2024-03-23T02:37:14;14.88;;;11.52;;
47856;SDS011;33618;49.972;8.242;2024-03-23T02:39:40;13.80;;;10.25;;
47856;SDS011;33618;49.972;8.242;2024-03-23T02:42:07;12.15;;;10.30;;
47856;SDS011;33618;49.972;8.242;2024-03-23T02:44:33;14.60;;;12.48;;
47856;SDS011;33618;49.972;8.242;2024-03-23T02:46:59;15.95;;;12.45;;
47856;SDS011;33618;49.972;8.242;2024-03-23T02:49:26;14.10;;;12.00;;
47856;SDS011;33618;49.972;8.242;2024-03-23T02:51:53;12.95;;;10.07;;
47856;SDS011;33618;49.972;8.242;2024-03-23T02:54:19;15.13;;;12.20;;
47856;SDS011;33618;49.972;8.242;2024-03-23T02:56:45;14.73;;;10.68;;
47856;SDS011;33618;49.972;8.242;2024-03-23T02:59:12;12.88;;;10.40;;
47856;SDS011;33618;49.972;8.242;2024-03-23T03:01:38;15.18;;;12.15;;
47856;SDS011;33618;49.972;8.242;2024-03-23T03:04:04;15.55;;;11.32;;
47856;SDS011;33618;49.972;8.242;2024-03-23T03:06:31;15.13;;;12.13;;
47856;SDS011;33618;49.972;8.242;2024-03-23T03:08:57;13.50;;;9.63;;
47856;SDS011;33618;49.972;8.242;2024-03-23T03:11:24;15.60;;;11.35;;
47856;SDS011;33618;49.972;8.242;2024-03-23T03:13:50;15.18;;;11.02;;
47856;SDS011;33618;49.972;8.242;2024-03-23T03:16:16;17.02;;;13.48;;
47856;SDS011;33618;49.972;8.242;2024-03-23T03:18:42;15.07;;;11.13;;
47856;SDS011;33618;49.972;8.242;2024-03-23T03:21:11;14.93;;;10.65;;
47856;SDS011;33618;49.972;8.242;2024-03-23T03:23:38;15.05;;;10.80;;
47856;SDS011;33618;49.972;8.242;2024-03-23T03:26:04;15.93;;;12.85;;
47856;SDS011;33618;49.972;8.242;2024-03-23T03:28:31;14.00;;;11.25;;
47856;SDS011;33618;49.972;8.242;2024-03-23T03:30:58;14.65;;;10.77;;
47856;SDS011;33618;49.972;8.242;2024-03-23T03:33:25;11.95;;;10.07;;
47856;SDS011;33618;49.972;8.242;2024-03-23T03:35:51;16.20;;;11.13;;
47856;SDS011;33618;49.972;8.242;2024-03-23T03:38:19;15.75;;;9.82;;
47856;SDS011;33618;49.972;8.242;2024-03-23T03:40:45;12.40;;;9.18;;
47856;SDS011;33618;49.972;8.242;2024-03-23T03:43:12;12.18;;;8.65;;
47856;SDS011;33618;49.972;8.242;2024-03-23T03:45:38;11.60;;;8.38;;
47856;SDS011;33618;49.972;8.242;2024-03-23T03:48:05;12.48;;;9.90;;
47856;SDS011;33618;49.972;8.242;2024-03-23T03:50:31;12.55;;;9.95;;
47856;SDS011;33618;49.972;8.242;2024-03-23T03:52:58;9.05;;;5.15;;
47856;SDS011;33618;49.972;8.242;2024-03-23T03:55:24;8.02;;;5.10;;
47856;SDS011;33618;49.972;8.242;2024-03-23T03:57:50;9.00;;;4.50;;
47856;SDS011;33618;49.972;8.242;2024-03-23T04:00:16;9.07;;;7.03;;
47856;SDS011;33618;49.972;8.242;2024-03-23T04:02:43;5.78;;;4.75;;
47856;SDS011;33618;49.972;8.242;2024-03-23T04:05:09;4.32;;;3.88;;
47856;SDS011;33618;49.972;8.242;2024-03-23T04:07:35;3.85;;;3.30;;
47856;SDS011;33618;49.972;8.242;2024-03-23T04:10:02;4.47;;;1.80;;
47856;SDS011;33618;49.972;8.242;2024-03-23T04:12:32;0.80;;;0.80;;
47856;SDS011;33618;49.972;8.242;2024-03-23T04:14:58;1.20;;;1.10;;
47856;SDS011;33618;49.972;8.242;2024-03-23T04:17:25;0.90;;;0.90;;
47856;SDS011;33618;49.972;8.242;2024-03-23T04:19:54;1.23;;;1.15;;
47856;SDS011;33618;49.972;8.242;2024-03-23T04:22:21;1.23;;;0.80;;
47856;SDS011;33618;49.972;8.242;2024-03-23T04:24:49;1.58;;;1.13;;
47856;SDS011;33618;49.972;8.242;2024-03-23T04:27:15;0.60;;;0.47;;
47856;SDS011;33618;49.972;8.242;2024-03-23T04:29:42;0.47;;;0.47;;
47856;SDS011;33618;49.972;8.242;2024-03-23T04:32:08;0.60;;;0.60;;
47856;SDS011;33618;49.972;8.242;2024-03-23T04:34:34;1.08;;;0.60;;
47856;SDS011;33618;49.972;8.242;2024-03-23T04:37:01;0.70;;;0.70;;
47856;SDS011;33618;49.972;8.242;2024-03-23T04:39:27;0.57;;;0.57;;
47856;SDS011;33618;49.972;8.242;2024-03-23T04:41:53;1.02;;;0.52;;
47856;SDS011;33618;49.972;8.242;2024-03-23T04:44:20;1.25;;;0.57;;
47856;SDS011;33618;49.972;8.242;2024-03-23T04:46:46;0.70;;;0.60;;
47856;SDS011;33618;49.972;8.242;2024-03-23T04:49:12;0.60;;;0.60;;
47856;SDS011;33618;49.972;8.242;2024-03-23T04:51:39;0.90;;;0.52;;
47856;SDS011;33618;49.972;8.242;2024-03-23T04:54:11;0.90;;;0.90;;
47856;SDS011;33618;49.972;8.242;2024-03-23T04:56:37;0.50;;;0.50;;
47856;SDS011;33618;49.972;8.242;2024-03-23T04:59:04;0.85;;;0.60;;
47856;SDS011;33618;49.972;8.242;2024-03-23T05:01:31;0.63;;;0.63;;
47856;SDS011;33618;49.972;8.242;2024-03-23T05:03:57;0.80;;;0.80;;
47856;SDS011;33618;49.972;8.242;2024-03-23T05:06:24;0.90;;;0.90;;
47856;SDS011;33618;49.972;8.242;2024-03-23T05:08:51;0.55;;;0.55;;
47856;SDS011;33618;49.972;8.242;2024-03-23T05:11:17;0.77;;;0.77;;
47856;SDS011;33618;49.972;8.242;2024-03-23T05:13:45;0.77;;;0.77;;
47856;SDS011;33618;49.972;8.242;2024-03-23T05:16:11;0.80;;;0.77;;
47856;SDS011;33618;49.972;8.242;2024-03-23T05:18:37;3.85;;;1.02;;
47856;SDS011;33618;49.972;8.242;2024-03-23T05:21:04;1.13;;;0.90;;
47856;SDS011;33618;49.972;8.242;2024-03-23T05:23:30;0.80;;;0.80;;
47856;SDS011;33618;49.972;8.242;2024-03-23T05:25:56;0.88;;;0.88;;
47856;SDS011;33618;49.972;8.242;2024-03-23T05:28:23;0.68;;;0.68;;
47856;SDS011;33618;49.972;8.242;2024-03-23T05:30:52;1.10;;;0.98;;
47856;SDS011;33618;49.972;8.242;2024-03-23T05:33:19;1.55;;;1.00;;
47856;SDS011;33618;49.972;8.242;2024-03-23T05:35:46;0.70;;;0.70;;
47856;SDS011;33618;49.972;8.242;2024-03-23T05:38:13;0.73;;;0.65;;
47856;SDS011;33618;49.972;8.242;2024-03-23T05:40:39;0.57;;;0.57;;
47856;SDS011;33618;49.972;8.242;2024-03-23T05:43:06;0.80;;;0.60;;
47856;SDS011;33618;49.972;8.242;2024-03-23T05:45:32;0.38;;;0.38;;
47856;SDS011;33618;49.972;8.242;2024-03-23T05:47:59;0.40;;;0.40;;
47856;SDS011;33618;49.972;8.242;2024-03-23T05:50:27;0.30;;;0.30;;
47856;SDS011;33618;49.972;8.242;2024-03-23T05:52:53;0.30;;;0.30;;
47856;SDS011;33618;49.972;8.242;2024-03-23T05:55:19;0.20;;;0.20;;
47856;SDS011;33618;49.972;8.242;2024-03-23T05:57:46;0.30;;;0.30;;
47856;SDS011;33618;49.972;8.242;2024-03-23T06:00:12;0.65;;;0.65;;
47856;SDS011;33618;49.972;8.242;2024-03-23T06:02:42;0.63;;;0.60;;
47856;SDS011;33618;49.972;8.242;2024-03-23T06:05:11;1.33;;;0.50;;
47856;SDS011;33618;49.972;8.242;2024-03-23T06:07:37;0.57;;;0.57;;
47856;SDS011;33618;49.972;8.242;2024-03-23T06:10:05;0.40;;;0.40;;
47856;SDS011;33618;49.972;8.242;2024-03-23T06:12:31;0.88;;;0.88;;
47856;SDS011;33618;49.972;8.242;2024-03-23T06:14:58;1.13;;;0.70;;
47856;SDS011;33618;49.972;8.242;2024-03-23T06:17:24;0.68;;;0.68;;
47856;SDS011;33618;49.972;8.242;2024-03-23T06:19:50;0.40;;;0.40;;
47856;SDS011;33618;49.972;8.242;2024-03-23T06:22:17;0.98;;;0.63;;
47856;SDS011;33618;49.972;8.242;2024-03-23T06:24:44;0.50;;;0.50;;
47856;SDS011;33618;49.972;8.242;2024-03-23T06:27:10;0.47;;;0.47;;
47856;SDS011;33618;49.972;8.242;2024-03-23T06:29:36;0.52;;;0.52;;
47856;SDS011;33618;49.972;8.242;2024-03-23T06:32:03;0.70;;;0.70;;
47856;SDS011;33618;49.972;8.242;2024-03-23T06:34:31;0.57;;;0.47;;
47856;SDS011;33618;49.972;8.242;2024-03-23T06:36:57;0.60;;;0.60;;
47856;SDS011;33618;49.972;8.242;2024-03-23T06:39:24;0.40;;;0.40;;
47856;SDS011;33618;49.972;8.242;2024-03-23T06:41:53;0.75;;;0.75;;
47856;SDS011;33618;49.972;8.242;2024-03-23T06:44:20;1.02;;;1.02;;
47856;SDS011;33618;49.972;8.242;2024-03-23T06:46:47;0.93;;;0.85;;
47856;SDS011;33618;49.972;8.242;2024-03-23T06:49:14;0.90;;;0.90;;
47856;SDS011;33618;49.972;8.242;2024-03-23T06:51:41;0.93;;;0.93;;
47856;SDS011;33618;49.972;8.242;2024-03-23T06:54:07;1.27;;;1.05;;
47856;SDS011;33618;49.972;8.242;2024-03-23T06:56:33;0.75;;;0.75;;
47856;SDS011;33618;49.972;8.242;2024-03-23T06:59:00;1.15;;;0.80;;
47856;SDS011;33618;49.972;8.242;2024-03-23T07:01:26;2.97;;;0.98;;
47856;SDS011;33618;49.972;8.242;2024-03-23T07:03:54;0.47;;;0.45;;
47856;SDS011;33618;49.972;8.242;2024-03-23T07:06:20;0.95;;;0.85;;
47856;SDS011;33618;49.972;8.242;2024-03-23T07:08:47;4.80;;;1.20;;
47856;SDS011;33618;49.972;8.242;2024-03-23T07:11:22;0.65;;;0.60;;
47856;SDS011;33618;49.972;8.242;2024-03-23T07:13:49;1.40;;;1.30;;
47856;SDS011;33618;49.972;8.242;2024-03-23T07:16:16;1.27;;;1.17;;
47856;SDS011;33618;49.972;8.242;2024-03-23T07:18:42;0.75;;;0.73;;
47856;SDS011;33618;49.972;8.242;2024-03-23T07:21:09;0.82;;;0.82;;
47856;SDS011;33618;49.972;8.242;2024-03-23T07:23:35;1.67;;;1.40;;
47856;SDS011;33618;49.972;8.242;2024-03-23T07:26:05;1.42;;;1.10;;
47856;SDS011;33618;49.972;8.242;2024-03-23T07:28:31;0.85;;;0.85;;
47856;SDS011;33618;49.972;8.242;2024-03-23T07:33:28;4.53;;;1.40;;
47856;SDS011;33618;49.972;8.242;2024-03-23T07:35:55;2.33;;;0.88;;
47856;SDS011;33618;49.972;8.242;2024-03-23T07:38:21;0.82;;;0.82;;
47856;SDS011;33618;49.972;8.242;2024-03-23T07:40:47;1.17;;;1.10;;
47856;SDS011;33618;49.972;8.242;2024-03-23T07:43:24;4.50;;;1.73;;
47856;SDS011;33618;49.972;8.242;2024-03-23T07:45:51;3.13;;;1.33;;
47856;SDS011;33618;49.972;8.242;2024-03-23T07:48:18;4.63;;;2.25;;
47856;SDS011;33618;49.972;8.242;2024-03-23T07:50:44;5.07;;;1.30;;
47856;SDS011;33618;49.972;8.242;2024-03-23T07:53:10;4.80;;;2.20;;
47856;SDS011;33618;49.972;8.242;2024-03-23T07:55:37;1.98;;;1.65;;
47856;SDS011;33618;49.972;8.242;2024-03-23T07:58:03;1.90;;;1.70;;
47856;SDS011;33618;49.972;8.242;2024-03-23T08:00:34;1.98;;;1.45;;
47856;SDS011;33618;49.972;8.242;2024-03-23T08:03:00;1.50;;;1.40;;
47856;SDS011;33618;49.972;8.242;2024-03-23T08:05:27;2.00;;;1.20;;
47856;SDS011;33618;49.972;8.242;2024-03-23T08:07:53;6.38;;;2.45;;
47856;SDS011;33618;49.972;8.242;2024-03-23T08:10:19;0.90;;;0.90;;
47856;SDS011;33618;49.972;8.242;2024-03-23T08:12:46;2.47;;;1.55;;
47856;SDS011;33618;49.972;8.242;2024-03-23T08:15:12;3.72;;;1.15;;
47856;SDS011;33618;49.972;8.242;2024-03-23T08:17:38;4.57;;;1.98;;
47856;SDS011;33618;49.972;8.242;2024-03-23T08:20:05;3.10;;;1.52;;
47856;SDS011;33618;49.972;8.242;2024-03-23T08:22:33;1.35;;;1.25;;
47856;SDS011;33618;49.972;8.242;2024-03-23T08:24:59;3.05;;;1.85;;
47856;SDS011;33618;49.972;8.242;2024-03-23T08:27:25;2.83;;;1.13;;
47856;SDS011;33618;49.972;8.242;2024-03-23T08:29:56;3.15;;;1.98;;
47856;SDS011;33618;49.972;8.242;2024-03-23T08:32:22;5.78;;;1.85;;
47856;SDS011;33618;49.972;8.242;2024-03-23T08:34:49;1.50;;;1.23;;
47856;SDS011;33618;49.972;8.242;2024-03-23T08:37:16;6.97;;;1.58;;
47856;SDS011;33618;49.972;8.242;2024-03-23T08:39:45;1.73;;;1.33;;
47856;SDS011;33618;49.972;8.242;2024-03-23T08:42:11;2.35;;;1.83;;
47856;SDS011;33618;49.972;8.242;2024-03-23T08:44:38;3.17;;;1.33;;
47856;SDS011;33618;49.972;8.242;2024-03-23T08:47:04;1.95;;;1.02;;
47856;SDS011;33618;49.972;8.242;2024-03-23T08:49:30;5.85;;;2.75;;
47856;SDS011;33618;49.972;8.242;2024-03-23T08:51:57;3.83;;;2.53;;
47856;SDS011;33618;49.972;8.242;2024-03-23T08:54:23;2.70;;;1.92;;
47856;SDS011;33618;49.972;8.242;2024-03-23T08:56:49;6.53;;;3.28;;
47856;SDS011;33618;49.972;8.242;2024-03-23T08:59:15;8.20;;;3.80;;
47856;SDS011;33618;49.972;8.242;2024-03-23T09:01:42;6.40;;;3.75;;
47856;SDS011;33618;49.972;8.242;2024-03-23T09:04:08;6.22;;;3.42;;
47856;SDS011;33618;49.972;8.242;2024-03-23T09:06:35;7.70;;;3.33;;
47856;SDS011;33618;49.972;8.242;2024-03-23T09:09:02;8.63;;;3.35;;
47856;SDS011;33618;49.972;8.242;2024-03-23T09:11:28;7.07;;;2.70;;
47856;SDS011;33618;49.972;8.242;2024-03-23T09:13:56;8.02;;;2.95;;
47856;SDS011;33618;49.972;8.242;2024-03-23T09:16:22;7.55;;;2.78;;
47856;SDS011;33618;49.972;8.242;2024-03-23T09:18:49;4.68;;;2.45;;
47856;SDS011;33618;49.972;8.242;2024-03-23T09:21:20;6.32;;;2.53;;
47856;SDS011;33618;49.972;8.242;2024-03-23T09:23:46;5.40;;;2.70;;
47856;SDS011;33618;49.972;8.242;2024-03-23T09:26:14;7.00;;;2.40;;
47856;SDS011;33618;49.972;8.242;2024-03-23T09:28:40;5.93;;;2.30;;
47856;SDS011;33618;49.972;8.242;2024-03-23T09:31:07;4.80;;;2.45;;
47856;SDS011;33618;49.972;8.242;2024-03-23T09:33:35;6.60;;;2.50;;
47856;SDS011;33618;49.972;8.242;2024-03-23T09:36:04;6.85;;;2.55;;
47856;SDS011;33618;49.972;8.242;2024-03-23T09:38:31;6.47;;;2.15;;
47856;SDS011;33618;49.972;8.242;2024-03-23T09:40:58;5.18;;;2.00;;
47856;SDS011;33618;49.972;8.242;2024-03-23T09:43:25;6.05;;;2.35;;
47856;SDS011;33618;49.972;8.242;2024-03-23T09:45:51;4.10;;;2.08;;
47856;SDS011;33618;49.972;8.242;2024-03-23T09:48:18;8.68;;;2.33;;
47856;SDS011;33618;49.972;8.242;2024-03-23T09:50:45;2.97;;;1.63;;
47856;SDS011;33618;49.972;8.242;2024-03-23T09:53:12;5.22;;;1.75;;
47856;SDS011;33618;49.972;8.242;2024-03-23T09:55:39;5.05;;;1.55;;
47856;SDS011;33618;49.972;8.242;2024-03-23T09:58:06;2.17;;;1.13;;
47856;SDS011;33618;49.972;8.242;2024-03-23T10:00:34;2.67;;;1.08;;
47856;SDS011;33618;49.972;8.242;2024-03-23T10:03:00;5.68;;;1.52;;
47856;SDS011;33618;49.972;8.242;2024-03-23T10:05:30;4.28;;;1.88;;
47856;SDS011;33618;49.972;8.242;2024-03-23T10:07:57;1.92;;;0.65;;
47856;SDS011;33618;49.972;8.242;2024-03-23T10:10:27;2.97;;;1.30;;
47856;SDS011;33618;49.972;8.242;2024-03-23T10:12:53;2.70;;;1.65;;
47856;SDS011;33618;49.972;8.242;2024-03-23T10:15:20;4.63;;;1.50;;
47856;SDS011;33618;49.972;8.242;2024-03-23T10:17:47;4.07;;;2.03;;
47856;SDS011;33618;49.972;8.242;2024-03-23T10:20:17;2.38;;;1.63;;
47856;SDS011;33618;49.972;8.242;2024-03-23T10:22:44;3.63;;;1.48;;
47856;SDS011;33618;49.972;8.242;2024-03-23T10:25:11;1.98;;;0.57;;
47856;SDS011;33618;49.972;8.242;2024-03-23T10:27:39;1.48;;;0.50;;
47856;SDS011;33618;49.972;8.242;2024-03-23T10:30:12;6.60;;;0.75;;
47856;SDS011;33618;49.972;8.242;2024-03-23T10:32:40;0.93;;;0.57;;
47856;SDS011;33618;49.972;8.242;2024-03-23T10:35:16;1.05;;;0.63;;
47856;SDS011;33618;49.972;8.242;2024-03-23T10:37:49;2.08;;;0.85;;
47856;SDS011;33618;49.972;8.242;2024-03-23T10:40:15;2.03;;;1.13;;
47856;SDS011;33618;49.972;8.242;2024-03-23T10:42:41;2.60;;;0.73;;
47856;SDS011;33618;49.972;8.242;2024-03-23T10:45:08;1.10;;;0.50;;
47856;SDS011;33618;49.972;8.242;2024-03-23T10:47:35;1.98;;;0.80;;
47856;SDS011;33618;49.972;8.242;2024-03-23T10:50:02;0.50;;;0.50;;
47856;SDS011;33618;49.972;8.242;2024-03-23T10:52:31;0.80;;;0.73;;
47856;SDS011;33618;49.972;8.242;2024-03-23T10:54:57;0.75;;;0.45;;
47856;SDS011;33618;49.972;8.242;2024-03-23T10:57:27;2.40;;;1.80;;
47856;SDS011;33618;49.972;8.242;2024-03-23T10:59:56;0.82;;;0.82;;
47856;SDS011;33618;49.972;8.242;2024-03-23T11:02:22;1.73;;;1.08;;
47856;SDS011;33618;49.972;8.242;2024-03-23T11:04:51;0.40;;;0.40;;
47856;SDS011;33618;49.972;8.242;2024-03-23T11:09:50;0.20;;;0.20;;
47856;SDS011;33618;49.972;8.242;2024-03-23T11:17:20;4.07;;;0.40;;
47856;SDS011;33618;49.972;8.242;2024-03-23T11:19:53;0.40;;;0.40;;
47856;SDS011;33618;49.972;8.242;2024-03-23T11:27:39;4.20;;;0.93;;
47856;SDS011;33618;49.972;8.242;2024-03-23T11:32:48;2.35;;;0.98;;
47856;SDS011;33618;49.972;8.242;2024-03-23T11:35:31;2.40;;;1.52;;
47856;SDS011;33618;49.972;8.242;2024-03-23T11:40:28;5.93;;;2.13;;
47856;SDS011;33618;49.972;8.242;2024-03-23T11:43:01;4.20;;;2.38;;
47856;SDS011;33618;49.972;8.242;2024-03-23T11:45:36;5.95;;;3.25;;
47856;SDS011;33618;49.972;8.242;2024-03-23T11:48:09;7.30;;;3.38;;
47856;SDS011;33618;49.972;8.242;2024-03-23T11:50:42;6.30;;;1.73;;
47856;SDS011;33618;49.972;8.242;2024-03-23T11:53:13;5.97;;;3.20;;
47856;SDS011;33618;49.972;8.242;2024-03-23T11:55:47;5.85;;;3.35;;
47856;SDS011;33618;49.972;8.242;2024-03-23T11:58:13;6.22;;;3.33;;
47856;SDS011;33618;49.972;8.242;2024-03-23T12:00:40;4.72;;;3.17;;
47856;SDS011;33618;49.972;8.242;2024-03-23T12:03:06;6.22;;;2.65;;
47856;SDS011;33618;49.972;8.242;2024-03-23T12:05:33;5.40;;;2.50;;
47856;SDS011;33618;49.972;8.242;2024-03-23T12:08:22;5.28;;;2.40;;
47856;SDS011;33618;49.972;8.242;2024-03-23T12:10:49;4.35;;;2.28;;
47856;SDS011;33618;49.972;8.242;2024-03-23T12:13:20;5.53;;;2.42;;
47856;SDS011;33618;49.972;8.242;2024-03-23T12:15:47;4.97;;;2.25;;
47856;SDS011;33618;49.972;8.242;2024-03-23T12:18:13;5.82;;;2.47;;
47856;SDS011;33618;49.972;8.242;2024-03-23T12:20:40;3.42;;;2.03;;
47856;SDS011;33618;49.972;8.242;2024-03-23T12:23:07;10.80;;;7.30;;
47856;SDS011;33618;49.972;8.242;2024-03-23T12:25:34;4.70;;;2.25;;
47856;SDS011;33618;49.972;8.242;2024-03-23T12:28:01;4.53;;;2.03;;
47856;SDS011;33618;49.972;8.242;2024-03-23T12:30:27;3.65;;;1.85;;
47856;SDS011;33618;49.972;8.242;2024-03-23T12:32:53;3.42;;;1.88;;
47856;SDS011;33618;49.972;8.242;2024-03-23T12:35:44;3.80;;;2.00;;
47856;SDS011;33618;49.972;8.242;2024-03-23T12:38:36;5.07;;;2.40;;
47856;SDS011;33618;49.972;8.242;2024-03-23T12:41:02;3.60;;;1.88;;
47856;SDS011;33618;49.972;8.242;2024-03-23T12:43:30;3.55;;;1.80;;
47856;SDS011;33618;49.972;8.242;2024-03-23T12:45:56;1.95;;;0.80;;
47856;SDS011;33618;49.972;8.242;2024-03-23T12:48:23;1.17;;;0.77;;
47856;SDS011;33618;49.972;8.242;2024-03-23T12:50:49;1.20;;;0.50;;
47856;SDS011;33618;49.972;8.242;2024-03-23T12:53:20;0.50;;;0.50;;
47856;SDS011;33618;49.972;8.242;2024-03-23T12:55:46;0.20;;;0.20;;
47856;SDS011;33618;49.972;8.242;2024-03-23T12:58:13;0.25;;;0.25;;
47856;SDS011;33618;49.972;8.242;2024-03-23T13:00:39;0.40;;;0.25;;
47856;SDS011;33618;49.972;8.242;2024-03-23T13:03:05;0.38;;;0.20;;
47856;SDS011;33618;49.972;8.242;2024-03-23T13:05:32;0.20;;;0.20;;
47856;SDS011;33618;49.972;8.242;2024-03-23T13:07:58;0.40;;;0.40;;
47856;SDS011;33618;49.972;8.242;2024-03-23T13:10:25;0.28;;;0.28;;
47856;SDS011;33618;49.972;8.242;2024-03-23T13:12:51;1.05;;;0.30;;
47856;SDS011;33618;49.972;8.242;2024-03-23T13:15:18;0.70;;;0.22;;
47856;SDS011;33618;49.972;8.242;2024-03-23T13:17:45;0.20;;;0.20;;
47856;SDS011;33618;49.972;8.242;2024-03-23T13:20:12;0.43;;;0.30;;
47856;SDS011;33618;49.972;8.242;2024-03-23T13:22:40;0.57;;;0.57;;
47856;SDS011;33618;49.972;8.242;2024-03-23T13:25:07;0.90;;;0.73;;
47856;SDS011;33618;49.972;8.242;2024-03-23T13:27:33;0.35;;;0.35;;
47856;SDS011;33618;49.972;8.242;2024-03-23T13:29:59;1.17;;;0.55;;
47856;SDS011;33618;49.972;8.242;2024-03-23T13:32:29;5.20;;;0.93;;
47856;SDS011;33618;49.972;8.242;2024-03-23T13:34:55;0.68;;;0.68;;
47856;SDS011;33618;49.972;8.242;2024-03-23T13:37:21;1.30;;;0.73;;
47856;SDS011;33618;49.972;8.242;2024-03-23T13:39:48;1.75;;;0.57;;
47856;SDS011;33618;49.972;8.242;2024-03-23T13:42:14;1.75;;;1.17;;
47856;SDS011;33618;49.972;8.242;2024-03-23T13:44:41;1.50;;;0.82;;
47856;SDS011;33618;49.972;8.242;2024-03-23T13:47:08;1.55;;;0.80;;
47856;SDS011;33618;49.972;8.242;2024-03-23T13:49:34;1.45;;;0.85;;
47856;SDS011;33618;49.972;8.242;2024-03-23T13:52:01;1.10;;;0.80;;
47856;SDS011;33618;49.972;8.242;2024-03-23T13:54:27;0.63;;;0.63;;
47856;SDS011;33618;49.972;8.242;2024-03-23T13:56:54;1.90;;;0.65;;
47856;SDS011;33618;49.972;8.242;2024-03-23T13:59:21;1.10;;;0.80;;
47856;SDS011;33618;49.972;8.242;2024-03-23T14:01:48;1.38;;;0.73;;
47856;SDS011;33618;49.972;8.242;2024-03-23T14:04:16;0.73;;;0.63;;
47856;SDS011;33618;49.972;8.242;2024-03-23T14:06:42;1.15;;;0.80;;
47856;SDS011;33618;49.972;8.242;2024-03-23T14:09:14;2.40;;;0.90;;
47856;SDS011;33618;49.972;8.242;2024-03-23T14:11:45;1.67;;;0.82;;
47856;SDS011;33618;49.972;8.242;2024-03-23T14:14:12;0.73;;;0.50;;
47856;SDS011;33618;49.972;8.242;2024-03-23T14:16:38;1.67;;;0.80;;
47856;SDS011;33618;49.972;8.242;2024-03-23T14:19:04;1.40;;;0.70;;
47856;SDS011;33618;49.972;8.242;2024-03-23T14:21:31;1.08;;;0.80;;
47856;SDS011;33618;49.972;8.242;2024-03-23T14:23:57;1.15;;;0.80;;
47856;SDS011;33618;49.972;8.242;2024-03-23T14:26:24;1.42;;;1.00;;
47856;SDS011;33618;49.972;8.242;2024-03-23T14:28:50;0.90;;;0.77;;
47856;SDS011;33618;49.972;8.242;2024-03-23T14:31:16;1.95;;;1.02;;
47856;SDS011;33618;49.972;8.242;2024-03-23T14:33:43;2.22;;;1.00;;
47856;SDS011;33618;49.972;8.242;2024-03-23T14:36:13;1.08;;;0.80;;
47856;SDS011;33618;49.972;8.242;2024-03-23T14:38:39;1.80;;;1.10;;
47856;SDS011;33618;49.972;8.242;2024-03-23T14:41:05;1.75;;;1.20;;
47856;SDS011;33618;49.972;8.242;2024-03-23T14:43:32;2.50;;;1.20;;
47856;SDS011;33618;49.972;8.242;2024-03-23T14:46:14;1.77;;;0.93;;
47856;SDS011;33618;49.972;8.242;2024-03-23T14:48:43;2.53;;;0.88;;
47856;SDS011;33618;49.972;8.242;2024-03-23T14:51:11;1.92;;;1.00;;
47856;SDS011;33618;49.972;8.242;2024-03-23T14:53:38;1.63;;;0.90;;
47856;SDS011;33618;49.972;8.242;2024-03-23T14:56:08;2.13;;;1.00;;
47856;SDS011;33618;49.972;8.242;2024-03-23T14:58:40;1.83;;;1.20;;
47856;SDS011;33618;49.972;8.242;2024-03-23T15:01:07;1.42;;;0.93;;
47856;SDS011;33618;49.972;8.242;2024-03-23T15:03:36;1.08;;;0.98;;
47856;SDS011;33618;49.972;8.242;2024-03-23T15:06:08;1.85;;;0.90;;
47856;SDS011;33618;49.972;8.242;2024-03-23T15:08:34;2.45;;;0.95;;
47856;SDS011;33618;49.972;8.242;2024-03-23T15:11:02;2.00;;;1.08;;
47856;SDS011;33618;49.972;8.242;2024-03-23T15:13:39;1.20;;;1.00;;
47856;SDS011;33618;49.972;8.242;2024-03-23T15:16:06;4.30;;;0.90;;
47856;SDS011;33618;49.972;8.242;2024-03-23T15:18:32;0.68;;;0.68;;
47856;SDS011;33618;49.972;8.242;2024-03-23T15:21:01;0.80;;;0.65;;
47856;SDS011;33618;49.972;8.242;2024-03-23T15:23:28;2.15;;;0.80;;
47856;SDS011;33618;49.972;8.242;2024-03-23T15:25:58;1.55;;;0.57;;
47856;SDS011;33618;49.972;8.242;2024-03-23T15:28:24;0.30;;;0.30;;
47856;SDS011;33618;49.972;8.242;2024-03-23T15:30:53;0.32;;;0.32;;
47856;SDS011;33618;49.972;8.242;2024-03-23T15:33:19;0.75;;;0.60;;
47856;SDS011;33618;49.972;8.242;2024-03-23T15:35:45;1.95;;;0.52;;
47856;SDS011;33618;49.972;8.242;2024-03-23T15:38:13;0.30;;;0.30;;
47856;SDS011;33618;49.972;8.242;2024-03-23T15:40:39;0.88;;;0.47;;
47856;SDS011;33618;49.972;8.242;2024-03-23T15:43:05;2.13;;;0.60;;
47856;SDS011;33618;49.972;8.242;2024-03-23T15:45:32;1.27;;;0.70;;
47856;SDS011;33618;49.972;8.242;2024-03-23T15:47:58;2.75;;;0.77;;
47856;SDS011;33618;49.972;8.242;2024-03-23T15:50:24;2.25;;;0.82;;
47856;SDS011;33618;49.972;8.242;2024-03-23T15:52:51;0.73;;;0.65;;
47856;SDS011;33618;49.972;8.242;2024-03-23T15:55:17;1.10;;;0.68;;
47856;SDS011;33618;49.972;8.242;2024-03-23T15:57:44;1.08;;;0.55;;